createdAt,value
2018-04-08T00:03:02.493Z,101161.13
2018-04-08T00:06:06.312Z,101161.37
2018-04-08T00:09:09.600Z,101161.85
2018-04-08T00:12:26.144Z,101157.22
2018-04-08T00:15:35.739Z,101159.27
2018-04-08T00:18:52.077Z,101155.74
2018-04-08T00:22:14.262Z,101155.44
2018-04-08T00:25:29.120Z,101153.48
2018-04-08T00:28:35.461Z,101148.34
2018-04-08T00:35:20.414Z,101141.36
2018-04-08T00:42:14.526Z,101137.02
2018-04-08T00:45:18.407Z,101134.66
2018-04-08T00:48:36.412Z,101134.23
2018-04-08T00:51:40.244Z,101129.91
2018-04-08T00:54:56.907Z,101124.49
2018-04-08T01:04:56.661Z,101111.70
2018-04-08T01:08:20.813Z,101113.94
2018-04-08T01:11:28.009Z,101112.59
2018-04-08T01:14:35.511Z,101109.16
2018-04-08T01:17:57.521Z,101113.86
2018-04-08T01:24:28.845Z,101111.15
2018-04-08T01:27:51.748Z,101112.51
2018-04-08T01:31:01.844Z,101104.27
2018-04-08T01:34:23.913Z,101107.55
2018-04-08T01:37:29.299Z,101101.61
2018-04-08T01:51:02.040Z,101096.05
2018-04-08T02:01:12.097Z,101096.52
2018-04-08T02:04:15.672Z,101094.62
2018-04-08T02:07:37.227Z,101092.91
2018-04-08T02:10:46.233Z,101092.99
2018-04-08T02:13:49.529Z,101097.19
2018-04-08T02:23:48.553Z,101096.43
2018-04-08T02:26:59.665Z,101102.17
2018-04-08T02:33:36.473Z,101098.95
2018-04-08T02:36:40.946Z,101096.83
2018-04-08T02:39:47.860Z,101101.84
2018-04-08T02:53:29.773Z,101096.97
2018-04-08T02:56:38.764Z,101098.30
2018-04-08T02:59:44.356Z,101098.72
2018-04-08T03:02:48.721Z,101100.79
2018-04-08T03:05:52.382Z,101100.46
2018-04-08T03:09:12.035Z,101097.52
2018-04-08T03:12:29.716Z,101100.23
2018-04-08T03:15:49.635Z,101103.02
2018-04-08T03:18:52.974Z,101103.20
2018-04-08T03:32:30.156Z,101094.21
2018-04-08T03:35:49.683Z,101089.36
2018-04-08T03:38:53.012Z,101086.80
2018-04-08T03:52:36.940Z,101078.25
2018-04-08T03:55:40.616Z,101078.74
2018-04-08T04:05:54.472Z,101067.57
2018-04-08T04:09:03.590Z,101072.73
2018-04-08T04:12:12.832Z,101070.46
2018-04-08T04:15:36.638Z,101065.64
2018-04-08T04:23:19.647Z,101064.35
2018-04-08T04:26:40.921Z,101074.26
2018-04-08T04:29:49.960Z,101073.47
2018-04-08T04:36:25.304Z,101081.20
2018-04-08T04:39:32.401Z,101084.43
2018-04-08T04:42:35.617Z,101085.95
2018-04-08T04:46:01.648Z,101090.29
2018-04-08T04:49:06.080Z,101096.89
2018-04-08T04:52:09.380Z,101099.31
2018-04-08T04:55:15.196Z,101097.39
2018-04-08T05:02:07.865Z,101089.91
2018-04-08T05:05:18.997Z,101088.07
2018-04-08T05:15:31.629Z,101094.52
2018-04-08T05:18:59.433Z,101098.03
2018-04-08T05:25:47.457Z,101095.70
2018-04-08T05:28:54.783Z,101102.02
2018-04-08T05:32:21.095Z,101107.04
2018-04-08T05:35:36.287Z,101114.05
2018-04-08T05:42:19.164Z,101116.02
2018-04-08T05:52:32.849Z,101117.93
2018-04-08T05:55:39.892Z,101115.09
2018-04-08T06:02:35.116Z,101112.03
2018-04-08T06:12:52.992Z,101098.22
2018-04-08T06:15:56.429Z,101100.51
2018-04-08T06:22:27.853Z,101101.86
2018-04-08T06:25:43.516Z,101108.56
2018-04-08T06:28:50.660Z,101112.32
2018-04-08T06:31:58.956Z,101115.07
2018-04-08T06:35:16.940Z,101117.28
2018-04-08T06:38:20.370Z,101120.71
2018-04-08T06:41:23.969Z,101126.76
2018-04-08T06:44:34.448Z,101121.62
2018-04-08T06:51:26.823Z,101119.37
2018-04-08T06:54:37.457Z,101114.19
2018-04-08T06:57:41.053Z,101121.40
2018-04-08T07:00:45.769Z,101114.32
2018-04-08T07:04:07.491Z,101115.98
2018-04-08T07:10:56.741Z,101124.69
2018-04-08T07:14:05.048Z,101122.02
2018-04-08T07:21:01.890Z,101126.85
2018-04-08T07:24:10.489Z,101119.48
2018-04-08T07:30:43.618Z,101112.67
2018-04-08T07:34:00.570Z,101104.09
2018-04-08T07:37:04.456Z,101107.80
2018-04-08T07:40:14.324Z,101110.30
2018-04-08T07:43:22.849Z,101111.42
2018-04-08T07:46:27.437Z,101108.67
2018-04-08T07:49:38.010Z,101101.79
2018-04-08T07:52:45.653Z,101098.32
2018-04-08T07:55:49.072Z,101102.94
2018-04-08T08:02:29.079Z,101101.67
2018-04-08T08:09:09.856Z,101101.92
2018-04-08T08:12:24.545Z,101105.26
2018-04-08T08:15:41.120Z,101104.27
2018-04-08T08:19:01.648Z,101097.84
2018-04-08T08:22:30.363Z,101097.68
2018-04-08T08:29:05.300Z,101093.66
2018-04-08T08:32:19.028Z,101092.96
2018-04-08T08:39:03.854Z,101086.98
2018-04-08T08:42:13.314Z,101088.94
2018-04-08T08:45:29.004Z,101090.39
2018-04-08T08:48:37.366Z,101087.21
2018-04-08T08:51:46.632Z,101085.20
2018-04-08T08:54:51.476Z,101076.48
2018-04-08T08:57:59.239Z,101079.14
2018-04-08T09:01:03.821Z,101078.27
2018-04-08T09:07:39.856Z,101070.77
2018-04-08T09:11:06.949Z,101075.17
2018-04-08T09:14:21.358Z,101064.85
2018-04-08T09:17:33.252Z,101065.44
2018-04-08T09:20:52.243Z,101060.33
2018-04-08T09:24:15.467Z,101063.22
2018-04-08T09:27:19.235Z,101060.37
2018-04-08T09:40:52.071Z,101057.81
2018-04-08T09:44:01.532Z,101052.49
2018-04-08T09:47:05.305Z,101049.44
2018-04-08T09:53:37.136Z,101034.89
2018-04-08T09:57:03.344Z,101029.10
2018-04-08T10:00:11.093Z,101032.50
2018-04-08T10:03:24.113Z,101027.55
2018-04-08T10:06:28.702Z,101023.66
2018-04-08T10:09:40.091Z,101020.26
2018-04-08T10:12:45.440Z,101017.40
2018-04-08T10:15:53.320Z,101016.48
2018-04-08T10:19:00.064Z,101014.58
2018-04-08T10:22:03.968Z,101013.46
2018-04-08T10:25:11.940Z,101008.24
2018-04-08T10:28:17.047Z,100999.91
2018-04-08T10:31:20.864Z,101003.94
2018-04-08T10:34:43.584Z,100988.14
2018-04-08T10:37:47.526Z,100984.72
2018-04-08T10:41:04.291Z,100977.31
2018-04-08T10:44:12.622Z,100987.75
2018-04-08T10:47:23.468Z,100992.29
2018-04-08T10:50:34.220Z,100973.91
2018-04-08T10:53:38.680Z,100971.20
2018-04-08T10:56:43.123Z,100968.43
2018-04-08T11:03:15.292Z,100957.30
2018-04-08T11:06:38.966Z,100950.39
2018-04-08T11:09:44.029Z,100947.45
2018-04-08T11:12:54.022Z,100941.20
2018-04-08T11:16:23.037Z,100932.91
2018-04-08T11:19:36.235Z,100927.24
2018-04-08T11:22:51.860Z,100928.07
2018-04-08T11:25:55.969Z,100920.93
2018-04-08T11:29:00.104Z,100906.34
2018-04-08T11:32:03.926Z,100901.21
2018-04-08T11:35:09.483Z,100902.24
2018-04-08T11:38:13.309Z,100896.74
2018-04-08T11:41:17.106Z,100888.75
2018-04-08T11:44:20.877Z,100895.81
2018-04-08T11:47:24.451Z,100897.41
2018-04-08T11:50:28.083Z,100890.12
2018-04-08T11:53:31.708Z,100888.01
2018-04-08T11:56:37.531Z,100888.05
2018-04-08T11:59:41.244Z,100877.54
2018-04-08T12:02:44.949Z,100873.82
2018-04-08T12:05:48.393Z,100871.83
2018-04-08T12:08:51.964Z,100869.34
2018-04-08T12:11:56.018Z,100862.37
2018-04-08T12:14:59.769Z,100862.44
2018-04-08T12:18:03.464Z,100861.67
2018-04-08T12:21:07.152Z,100853.71
2018-04-08T12:24:10.576Z,100854.85
2018-04-08T12:27:14.175Z,100857.73
2018-04-08T12:30:17.848Z,100848.59
2018-04-08T12:33:22.897Z,100849.90
2018-04-08T12:36:34.479Z,100844.03
2018-04-08T12:43:18.905Z,100831.91
2018-04-08T12:46:34.432Z,100828.09
2018-04-08T12:50:02.363Z,100826.70
2018-04-08T12:53:23.082Z,100817.34
2018-04-08T12:56:43.118Z,100818.02
2018-04-08T12:59:47.835Z,100812.18
2018-04-08T13:03:03.991Z,100810.87
2018-04-08T13:06:20.019Z,100803.52
2018-04-08T13:26:56.140Z,100776.58
2018-04-08T13:33:46.188Z,100766.33
2018-04-08T13:40:37.633Z,100759.38
2018-04-08T13:43:43.375Z,100758.58
2018-04-08T14:00:51.421Z,100728.70
2018-04-08T14:03:55.120Z,100725.56
2018-04-08T14:07:02.717Z,100711.59
2018-04-08T14:10:08.568Z,100719.55
2018-04-08T14:13:16.239Z,100716.54
2018-04-08T14:17:57.788Z,100708.61
2018-04-08T14:21:01.453Z,100702.23
2018-04-08T14:24:05.619Z,100700.64
2018-04-08T14:27:08.847Z,100700.40
2018-04-08T14:30:12.319Z,100690.97
2018-04-08T14:33:15.945Z,100688.28
2018-04-08T14:36:19.274Z,100689.89
2018-04-08T14:39:22.590Z,100682.50
2018-04-08T14:42:27.002Z,100687.98
2018-04-08T14:45:30.353Z,100679.94
2018-04-08T14:48:33.898Z,100679.44
2018-04-08T14:51:37.054Z,100675.39
2018-04-08T14:54:40.416Z,100673.11
2018-04-08T14:57:43.733Z,100670.95
2018-04-08T15:00:46.885Z,100667.03
2018-04-08T15:03:50.238Z,100659.55
2018-04-08T15:06:53.610Z,100657.91
2018-04-08T15:09:56.854Z,100656.51
2018-04-08T15:13:00.171Z,100644.68
2018-04-08T15:16:03.736Z,100644.37
2018-04-08T15:19:07.069Z,100637.88
2018-04-08T15:22:10.295Z,100635.42
2018-04-08T15:25:13.822Z,100633.83
2018-04-08T15:28:17.107Z,100623.19
2018-04-08T15:31:20.400Z,100626.89
2018-04-08T15:34:23.722Z,100623.53
2018-04-08T15:37:27.036Z,100622.60
2018-04-08T15:40:30.309Z,100624.31
2018-04-08T15:43:33.825Z,100622.31
2018-04-08T15:46:37.473Z,100628.95
2018-04-08T15:49:40.753Z,100626.62
2018-04-08T15:52:43.901Z,100628.73
2018-04-08T15:55:47.259Z,100637.00
2018-04-08T15:58:50.564Z,100637.38
2018-04-08T16:01:54.091Z,100635.20
2018-04-08T16:04:57.492Z,100638.55
2018-04-08T16:08:00.876Z,100636.85
2018-04-08T16:11:04.146Z,100643.66
2018-04-08T16:14:07.466Z,100643.17
2018-04-08T16:20:53.487Z,100641.39
2018-04-08T16:24:04.834Z,100643.28
2018-04-08T16:27:25.245Z,100647.50
2018-04-08T16:30:32.172Z,100648.41
2018-04-08T16:33:59.958Z,100652.37
2018-04-08T16:40:53.618Z,100668.13
2018-04-08T16:44:09.374Z,100672.83
2018-04-08T16:47:23.972Z,100671.42
2018-04-08T16:50:38.856Z,100670.78
2018-04-08T16:53:56.763Z,100667.16
2018-04-08T16:57:04.073Z,100665.75
2018-04-08T17:00:25.984Z,100665.69
2018-04-08T17:03:34.418Z,100663.29
2018-04-08T17:06:41.519Z,100667.42
2018-04-08T17:09:45.604Z,100664.86
2018-04-08T17:16:19.692Z,100669.08
2018-04-08T17:19:38.987Z,100677.61
2018-04-08T17:23:01.332Z,100682.79
2018-04-08T17:26:04.416Z,100690.08
2018-04-08T17:29:12.009Z,100692.05
2018-04-08T17:32:16.475Z,100691.84
2018-04-08T17:35:29.550Z,100695.27
2018-04-08T17:38:32.795Z,100696.88
2018-04-08T17:41:40.685Z,100703.33
2018-04-08T17:48:11.615Z,100712.29
2018-04-08T17:51:20.905Z,100716.32
2018-04-08T17:54:24.484Z,100712.63
2018-04-08T17:57:35.205Z,100711.80
2018-04-08T18:04:13.873Z,100719.50
2018-04-08T18:07:17.987Z,100718.58
2018-04-08T18:17:18.996Z,100719.35
2018-04-08T18:20:26.247Z,100721.89
2018-04-08T18:23:41.227Z,100725.41
2018-04-08T18:26:44.344Z,100727.15
2018-04-08T18:30:04.707Z,100731.64
2018-04-08T18:36:41.131Z,100736.14
2018-04-08T18:39:46.168Z,100745.12
2018-04-08T18:42:50.351Z,100745.49
2018-04-08T18:45:55.541Z,100752.86
2018-04-08T18:49:12.831Z,100754.84
2018-04-08T18:52:28.560Z,100762.70
2018-04-08T18:57:09.716Z,100761.71
2018-04-08T19:00:13.010Z,100766.74
2018-04-08T19:03:16.399Z,100772.64
2018-04-08T19:06:19.663Z,100767.14
2018-04-08T19:09:22.918Z,100767.52
2018-04-08T19:12:26.091Z,100768.34
2018-04-08T19:15:29.366Z,100768.11
2018-04-08T19:18:32.623Z,100766.28
2018-04-08T19:21:35.966Z,100762.94
2018-04-08T19:24:39.266Z,100762.66
2018-04-08T19:27:42.593Z,100756.22
2018-04-08T19:30:45.880Z,100758.07
2018-04-08T19:33:49.258Z,100767.32
2018-04-08T19:36:52.737Z,100763.22
2018-04-08T19:39:57.045Z,100758.65
2018-04-08T19:43:00.443Z,100757.34
2018-04-08T19:46:03.791Z,100751.98
2018-04-08T19:49:07.195Z,100750.33
2018-04-08T19:52:10.579Z,100753.06
2018-04-08T19:55:13.864Z,100752.34
2018-04-08T19:58:17.567Z,100750.39
2018-04-08T20:01:20.841Z,100747.89
2018-04-08T20:04:24.218Z,100749.83
2018-04-08T20:07:27.533Z,100748.16
2018-04-08T20:10:30.843Z,100743.89
2018-04-08T20:13:34.234Z,100741.82
2018-04-08T20:16:37.513Z,100740.36
2018-04-08T20:19:40.957Z,100745.47
2018-04-08T20:22:44.289Z,100739.75
2018-04-08T20:25:47.518Z,100744.54
2018-04-08T20:28:50.878Z,100744.33
2018-04-08T20:31:54.431Z,100739.77
2018-04-08T20:34:57.774Z,100742.89
2018-04-08T20:38:02.354Z,100744.74
2018-04-08T20:41:05.650Z,100739.68
2018-04-08T20:44:08.972Z,100745.80
2018-04-08T20:47:12.300Z,100739.84
2018-04-08T20:50:16.083Z,100739.72
2018-04-08T20:53:19.289Z,100727.82
2018-04-08T20:56:22.613Z,100735.33
2018-04-08T20:59:25.973Z,100731.98
2018-04-08T21:02:29.316Z,100737.33
2018-04-08T21:05:32.626Z,100732.09
2018-04-08T21:08:35.989Z,100731.37
2018-04-08T21:11:39.785Z,100737.59
2018-04-08T21:14:45.585Z,100730.60
2018-04-08T21:17:48.955Z,100727.93
2018-04-08T21:20:52.304Z,100722.32
2018-04-08T21:23:55.430Z,100722.26
2018-04-08T21:26:58.841Z,100720.15
2018-04-08T21:30:02.111Z,100720.72
2018-04-08T21:33:05.449Z,100723.40
2018-04-08T21:36:08.859Z,100727.73
2018-04-08T21:39:12.253Z,100727.64
2018-04-08T21:42:15.550Z,100730.03
2018-04-08T21:45:19.962Z,100729.94
2018-04-08T21:48:23.262Z,100730.07
2018-04-08T21:51:26.622Z,100730.68
2018-04-08T21:54:29.869Z,100731.39
2018-04-08T21:57:33.258Z,100730.95
2018-04-08T22:00:36.524Z,100730.20
2018-04-08T22:03:39.810Z,100725.32
2018-04-08T22:06:43.237Z,100728.32
2018-04-08T22:09:46.542Z,100725.66
2018-04-08T22:12:49.789Z,100720.69
2018-04-08T22:15:53.094Z,100721.23
2018-04-08T22:18:56.342Z,100721.61
2018-04-08T22:21:59.765Z,100723.13
2018-04-08T22:25:03.194Z,100721.58
2018-04-08T22:28:06.548Z,100722.96
2018-04-08T22:31:10.015Z,100717.03
2018-04-08T22:34:13.469Z,100717.97
2018-04-08T22:37:16.897Z,100710.87
2018-04-08T22:40:20.251Z,100706.70
2018-04-08T22:43:23.633Z,100709.07
2018-04-08T22:46:26.906Z,100705.93
2018-04-08T22:49:30.271Z,100708.69
2018-04-08T22:52:33.569Z,100715.60
2018-04-08T22:55:36.915Z,100716.24
2018-04-08T22:58:40.241Z,100720.77
2018-04-08T23:01:43.557Z,100727.13
2018-04-08T23:04:46.942Z,100733.89
2018-04-08T23:07:50.235Z,100739.27
2018-04-08T23:10:53.523Z,100739.77
2018-04-08T23:13:56.916Z,100738.82
2018-04-08T23:17:00.207Z,100737.73
2018-04-08T23:20:03.625Z,100741.74
2018-04-08T23:23:06.918Z,100748.02
2018-04-08T23:26:10.295Z,100742.59
2018-04-08T23:29:13.449Z,100746.89
2018-04-08T23:32:17.022Z,100746.12
2018-04-08T23:35:20.394Z,100748.53
2018-04-08T23:38:24.185Z,100751.13
2018-04-08T23:41:27.541Z,100748.06
2018-04-08T23:44:30.905Z,100748.30
2018-04-08T23:47:34.188Z,100746.58
2018-04-08T23:50:37.464Z,100743.36
2018-04-08T23:53:40.818Z,100743.30
2018-04-08T23:56:44.114Z,100738.44
2018-04-08T23:59:47.381Z,100745.98
